Etusivu
METAR-TAF:

METAR-TAF

Lentoasemat :

Audubon County Airport

Audubon, Iowa, Yhdysvallat

Leveyspiiri: 41-42-04N, Pituuspiiri: 094-55-13W, korkeus merenpinnasta: 392 m

Tämänhetkinen sää

Tämä raportti tehtiin 25 minuuttia sitten, kello 10.55 UTC
tyyntä
Lämpötila -3°C
Kosteus 93%
Ilmanpaine 1009 hPa
Näkyvyys: 11.3 km
Hajanaisia pilviä 12000 ft:n korkeudessa

METAR: KADU 181055Z AUTO 00000KT 7SM SCT120 M03/M04 A2980 RMK AO2

Aika: 05:20 (11:20 UTC)


TAF: puuttuu

Säähavainnot ja -ennusteet yli 4000 lentoasemalta (METAR- ja TAF-raportit).

Käytössä olevat sääasemat on merkitty karttaan keltaisilla ja punaisilla pisteillä.

Aseta hiiri pisteen päälle nähdäksesi sääaseman nimen.

Klikkaa sitten nähdäksesi säähavainnot ja -ennusteet.

Kartan vaihtaminen: klikkaa mustalla rastilla varustettuja vihreitä pisteitä, niin voit zoomata sisään; viivalla varustettua vihreää pistettä, niin voit zoomata ulos tai vihreitä nuolia, niin pääset viereisille kartoille.


METAR-TAF: